sensor_id;sensor_type;location;lat;lon;timestamp;P1;durP1;ratioP1;P2;durP2;ratioP2
44147;SDS011;29810;55.848;37.368;2022-07-23T00:01:33;6.87;;;4.40;;
44147;SDS011;29810;55.848;37.368;2022-07-23T00:04:35;11.45;;;4.55;;
44147;SDS011;29810;55.848;37.368;2022-07-23T00:07:36;7.07;;;4.50;;
44147;SDS011;29810;55.848;37.368;2022-07-23T00:10:38;5.72;;;5.10;;
44147;SDS011;29810;55.848;37.368;2022-07-23T00:13:40;5.32;;;4.65;;
44147;SDS011;29810;55.848;37.368;2022-07-23T00:16:42;5.45;;;4.87;;
44147;SDS011;29810;55.848;37.368;2022-07-23T00:19:43;9.52;;;4.75;;
44147;SDS011;29810;55.848;37.368;2022-07-23T00:22:54;5.72;;;4.50;;
44147;SDS011;29810;55.848;37.368;2022-07-23T00:25:56;6.07;;;4.78;;
44147;SDS011;29810;55.848;37.368;2022-07-23T00:28:58;5.15;;;4.50;;
44147;SDS011;29810;55.848;37.368;2022-07-23T00:31:59;7.05;;;4.65;;
44147;SDS011;29810;55.848;37.368;2022-07-23T00:35:01;9.18;;;5.50;;
44147;SDS011;29810;55.848;37.368;2022-07-23T00:38:04;7.75;;;4.87;;
44147;SDS011;29810;55.848;37.368;2022-07-23T00:41:06;8.02;;;4.80;;
44147;SDS011;29810;55.848;37.368;2022-07-23T00:44:14;6.93;;;4.80;;
44147;SDS011;29810;55.848;37.368;2022-07-23T00:47:17;6.30;;;4.82;;
44147;SDS011;29810;55.848;37.368;2022-07-23T00:50:18;6.95;;;4.90;;
44147;SDS011;29810;55.848;37.368;2022-07-23T00:53:20;6.03;;;5.07;;
44147;SDS011;29810;55.848;37.368;2022-07-23T00:56:22;6.75;;;5.10;;
44147;SDS011;29810;55.848;37.368;2022-07-23T00:59:24;5.35;;;4.85;;
44147;SDS011;29810;55.848;37.368;2022-07-23T01:02:25;5.55;;;4.78;;
44147;SDS011;29810;55.848;37.368;2022-07-23T01:05:28;6.22;;;4.95;;
44147;SDS011;29810;55.848;37.368;2022-07-23T01:08:29;7.00;;;4.87;;
44147;SDS011;29810;55.848;37.368;2022-07-23T01:11:32;7.25;;;4.80;;
44147;SDS011;29810;55.848;37.368;2022-07-23T01:14:35;5.45;;;4.95;;
44147;SDS011;29810;55.848;37.368;2022-07-23T01:17:36;8.35;;;5.00;;
44147;SDS011;29810;55.848;37.368;2022-07-23T01:20:38;6.40;;;4.75;;
44147;SDS011;29810;55.848;37.368;2022-07-23T01:23:41;7.93;;;4.85;;
44147;SDS011;29810;55.848;37.368;2022-07-23T01:26:43;6.82;;;4.93;;
44147;SDS011;29810;55.848;37.368;2022-07-23T01:29:46;6.70;;;4.75;;
44147;SDS011;29810;55.848;37.368;2022-07-23T01:32:48;7.07;;;5.40;;
44147;SDS011;29810;55.848;37.368;2022-07-23T01:35:51;7.07;;;5.37;;
44147;SDS011;29810;55.848;37.368;2022-07-23T01:38:55;6.53;;;4.97;;
44147;SDS011;29810;55.848;37.368;2022-07-23T01:41:57;6.95;;;4.65;;
44147;SDS011;29810;55.848;37.368;2022-07-23T01:45:00;6.43;;;4.53;;
44147;SDS011;29810;55.848;37.368;2022-07-23T01:48:04;5.85;;;4.65;;
44147;SDS011;29810;55.848;37.368;2022-07-23T01:51:08;8.82;;;4.95;;
44147;SDS011;29810;55.848;37.368;2022-07-23T01:54:11;6.05;;;4.72;;
44147;SDS011;29810;55.848;37.368;2022-07-23T01:57:13;5.55;;;4.90;;
44147;SDS011;29810;55.848;37.368;2022-07-23T02:00:15;6.85;;;4.85;;
44147;SDS011;29810;55.848;37.368;2022-07-23T02:03:19;8.13;;;4.50;;
44147;SDS011;29810;55.848;37.368;2022-07-23T02:06:21;5.62;;;4.40;;
44147;SDS011;29810;55.848;37.368;2022-07-23T02:09:24;4.85;;;4.37;;
44147;SDS011;29810;55.848;37.368;2022-07-23T02:12:26;8.13;;;4.65;;
44147;SDS011;29810;55.848;37.368;2022-07-23T02:15:27;7.22;;;4.43;;
44147;SDS011;29810;55.848;37.368;2022-07-23T02:18:29;7.85;;;4.40;;
44147;SDS011;29810;55.848;37.368;2022-07-23T02:21:31;5.82;;;4.55;;
44147;SDS011;29810;55.848;37.368;2022-07-23T02:24:32;7.37;;;4.80;;
44147;SDS011;29810;55.848;37.368;2022-07-23T02:27:35;6.93;;;4.45;;
44147;SDS011;29810;55.848;37.368;2022-07-23T02:30:37;7.07;;;4.32;;
44147;SDS011;29810;55.848;37.368;2022-07-23T02:33:41;4.90;;;4.32;;
44147;SDS011;29810;55.848;37.368;2022-07-23T02:36:42;5.85;;;4.18;;
44147;SDS011;29810;55.848;37.368;2022-07-23T02:39:44;5.82;;;4.68;;
44147;SDS011;29810;55.848;37.368;2022-07-23T02:42:46;8.05;;;4.65;;
44147;SDS011;29810;55.848;37.368;2022-07-23T02:45:48;5.80;;;4.80;;
44147;SDS011;29810;55.848;37.368;2022-07-23T02:48:51;7.93;;;4.70;;
44147;SDS011;29810;55.848;37.368;2022-07-23T02:51:53;5.18;;;4.65;;
44147;SDS011;29810;55.848;37.368;2022-07-23T02:54:55;6.50;;;4.95;;
44147;SDS011;29810;55.848;37.368;2022-07-23T02:57:57;7.43;;;5.30;;
44147;SDS011;29810;55.848;37.368;2022-07-23T03:00:58;5.82;;;4.95;;
44147;SDS011;29810;55.848;37.368;2022-07-23T03:04:00;6.47;;;4.78;;
44147;SDS011;29810;55.848;37.368;2022-07-23T03:07:02;8.05;;;5.05;;
44147;SDS011;29810;55.848;37.368;2022-07-23T03:10:03;5.65;;;4.95;;
44147;SDS011;29810;55.848;37.368;2022-07-23T03:13:05;5.97;;;5.30;;
44147;SDS011;29810;55.848;37.368;2022-07-23T03:16:07;6.90;;;4.85;;
44147;SDS011;29810;55.848;37.368;2022-07-23T03:19:10;6.15;;;5.00;;
44147;SDS011;29810;55.848;37.368;2022-07-23T03:22:12;6.70;;;4.87;;
44147;SDS011;29810;55.848;37.368;2022-07-23T03:25:13;5.00;;;4.50;;
44147;SDS011;29810;55.848;37.368;2022-07-23T03:28:15;6.00;;;4.40;;
44147;SDS011;29810;55.848;37.368;2022-07-23T03:31:19;7.57;;;4.22;;
44147;SDS011;29810;55.848;37.368;2022-07-23T03:34:21;5.75;;;4.60;;
44147;SDS011;29810;55.848;37.368;2022-07-23T03:37:23;6.40;;;4.37;;
44147;SDS011;29810;55.848;37.368;2022-07-23T03:40:25;5.78;;;4.70;;
44147;SDS011;29810;55.848;37.368;2022-07-23T03:43:26;6.22;;;4.40;;
44147;SDS011;29810;55.848;37.368;2022-07-23T03:46:28;6.82;;;4.57;;
44147;SDS011;29810;55.848;37.368;2022-07-23T03:49:30;6.37;;;4.10;;
44147;SDS011;29810;55.848;37.368;2022-07-23T03:52:31;5.25;;;4.30;;
44147;SDS011;29810;55.848;37.368;2022-07-23T03:55:33;5.47;;;4.32;;
44147;SDS011;29810;55.848;37.368;2022-07-23T03:58:35;6.18;;;4.28;;
44147;SDS011;29810;55.848;37.368;2022-07-23T04:01:36;6.78;;;4.62;;
44147;SDS011;29810;55.848;37.368;2022-07-23T04:04:38;6.45;;;4.78;;
44147;SDS011;29810;55.848;37.368;2022-07-23T04:07:40;6.35;;;4.80;;
44147;SDS011;29810;55.848;37.368;2022-07-23T04:10:42;5.75;;;4.50;;
44147;SDS011;29810;55.848;37.368;2022-07-23T04:13:45;6.25;;;4.62;;
44147;SDS011;29810;55.848;37.368;2022-07-23T04:16:47;5.37;;;4.87;;
44147;SDS011;29810;55.848;37.368;2022-07-23T04:19:48;5.05;;;4.50;;
44147;SDS011;29810;55.848;37.368;2022-07-23T04:22:50;6.30;;;4.50;;
44147;SDS011;29810;55.848;37.368;2022-07-23T04:25:52;5.10;;;4.60;;
44147;SDS011;29810;55.848;37.368;2022-07-23T04:28:54;6.62;;;4.72;;
44147;SDS011;29810;55.848;37.368;2022-07-23T04:31:55;5.12;;;4.62;;
44147;SDS011;29810;55.848;37.368;2022-07-23T04:34:57;7.25;;;5.40;;
44147;SDS011;29810;55.848;37.368;2022-07-23T04:37:59;12.85;;;5.00;;
44147;SDS011;29810;55.848;37.368;2022-07-23T04:41:01;6.00;;;4.85;;
44147;SDS011;29810;55.848;37.368;2022-07-23T04:44:02;7.93;;;5.43;;
44147;SDS011;29810;55.848;37.368;2022-07-23T04:47:04;6.55;;;5.22;;
44147;SDS011;29810;55.848;37.368;2022-07-23T04:50:07;5.72;;;4.80;;
44147;SDS011;29810;55.848;37.368;2022-07-23T04:53:11;6.82;;;4.93;;
44147;SDS011;29810;55.848;37.368;2022-07-23T04:56:12;7.78;;;5.47;;
44147;SDS011;29810;55.848;37.368;2022-07-23T04:59:14;7.25;;;5.20;;
44147;SDS011;29810;55.848;37.368;2022-07-23T05:02:16;6.85;;;4.90;;
44147;SDS011;29810;55.848;37.368;2022-07-23T05:05:18;7.75;;;5.35;;
44147;SDS011;29810;55.848;37.368;2022-07-23T05:08:20;8.80;;;5.20;;
44147;SDS011;29810;55.848;37.368;2022-07-23T05:11:22;7.68;;;5.68;;
44147;SDS011;29810;55.848;37.368;2022-07-23T05:14:23;6.50;;;5.80;;
44147;SDS011;29810;55.848;37.368;2022-07-23T05:17:25;6.43;;;5.12;;
44147;SDS011;29810;55.848;37.368;2022-07-23T05:20:27;6.00;;;5.40;;
44147;SDS011;29810;55.848;37.368;2022-07-23T05:23:29;7.65;;;5.60;;
44147;SDS011;29810;55.848;37.368;2022-07-23T05:26:31;6.55;;;5.47;;
44147;SDS011;29810;55.848;37.368;2022-07-23T05:29:33;6.60;;;5.70;;
44147;SDS011;29810;55.848;37.368;2022-07-23T05:32:34;6.70;;;5.57;;
44147;SDS011;29810;55.848;37.368;2022-07-23T05:35:39;8.07;;;5.78;;
44147;SDS011;29810;55.848;37.368;2022-07-23T05:38:41;6.25;;;5.65;;
44147;SDS011;29810;55.848;37.368;2022-07-23T05:41:43;6.28;;;5.65;;
44147;SDS011;29810;55.848;37.368;2022-07-23T05:44:45;6.22;;;5.62;;
44147;SDS011;29810;55.848;37.368;2022-07-23T05:47:47;6.95;;;6.28;;
44147;SDS011;29810;55.848;37.368;2022-07-23T05:50:51;7.80;;;6.03;;
44147;SDS011;29810;55.848;37.368;2022-07-23T05:53:55;6.30;;;5.70;;
44147;SDS011;29810;55.848;37.368;2022-07-23T05:56:56;6.70;;;6.10;;
44147;SDS011;29810;55.848;37.368;2022-07-23T05:59:58;6.25;;;5.65;;
44147;SDS011;29810;55.848;37.368;2022-07-23T06:03:01;6.40;;;5.80;;
44147;SDS011;29810;55.848;37.368;2022-07-23T06:06:03;6.72;;;5.57;;
44147;SDS011;29810;55.848;37.368;2022-07-23T06:09:05;6.93;;;6.03;;
44147;SDS011;29810;55.848;37.368;2022-07-23T06:12:08;6.12;;;5.53;;
44147;SDS011;29810;55.848;37.368;2022-07-23T06:15:10;6.75;;;6.15;;
44147;SDS011;29810;55.848;37.368;2022-07-23T06:18:12;6.28;;;5.68;;
44147;SDS011;29810;55.848;37.368;2022-07-23T06:21:14;7.07;;;6.28;;
44147;SDS011;29810;55.848;37.368;2022-07-23T06:24:16;7.15;;;6.45;;
44147;SDS011;29810;55.848;37.368;2022-07-23T06:27:17;7.50;;;6.28;;
44147;SDS011;29810;55.848;37.368;2022-07-23T06:30:19;6.95;;;6.22;;
44147;SDS011;29810;55.848;37.368;2022-07-23T06:33:21;6.50;;;5.90;;
44147;SDS011;29810;55.848;37.368;2022-07-23T06:36:22;7.12;;;6.25;;
44147;SDS011;29810;55.848;37.368;2022-07-23T06:39:24;6.95;;;6.25;;
44147;SDS011;29810;55.848;37.368;2022-07-23T06:42:25;7.80;;;7.03;;
44147;SDS011;29810;55.848;37.368;2022-07-23T06:45:30;7.30;;;6.60;;
44147;SDS011;29810;55.848;37.368;2022-07-23T06:48:33;7.57;;;6.87;;
44147;SDS011;29810;55.848;37.368;2022-07-23T06:51:36;8.35;;;6.60;;
44147;SDS011;29810;55.848;37.368;2022-07-23T06:54:38;7.32;;;6.70;;
44147;SDS011;29810;55.848;37.368;2022-07-23T06:57:39;7.40;;;6.68;;
44147;SDS011;29810;55.848;37.368;2022-07-23T07:00:41;7.53;;;6.82;;
44147;SDS011;29810;55.848;37.368;2022-07-23T07:03:42;7.72;;;7.03;;
44147;SDS011;29810;55.848;37.368;2022-07-23T07:06:44;8.90;;;7.18;;
44147;SDS011;29810;55.848;37.368;2022-07-23T07:09:46;8.10;;;7.10;;
44147;SDS011;29810;55.848;37.368;2022-07-23T07:12:47;8.20;;;7.45;;
44147;SDS011;29810;55.848;37.368;2022-07-23T07:15:49;7.93;;;7.12;;
44147;SDS011;29810;55.848;37.368;2022-07-23T07:18:51;7.80;;;7.10;;
44147;SDS011;29810;55.848;37.368;2022-07-23T07:21:52;8.20;;;6.87;;
44147;SDS011;29810;55.848;37.368;2022-07-23T07:24:54;9.15;;;7.22;;
44147;SDS011;29810;55.848;37.368;2022-07-23T07:27:55;7.93;;;7.10;;
44147;SDS011;29810;55.848;37.368;2022-07-23T07:30:57;9.43;;;7.20;;
44147;SDS011;29810;55.848;37.368;2022-07-23T07:33:59;8.23;;;6.93;;
44147;SDS011;29810;55.848;37.368;2022-07-23T07:37:00;7.97;;;6.50;;
44147;SDS011;29810;55.848;37.368;2022-07-23T07:40:02;7.75;;;6.72;;
44147;SDS011;29810;55.848;37.368;2022-07-23T07:43:04;7.40;;;6.72;;
44147;SDS011;29810;55.848;37.368;2022-07-23T07:46:06;6.90;;;5.93;;
44147;SDS011;29810;55.848;37.368;2022-07-23T07:49:11;8.05;;;7.25;;
44147;SDS011;29810;55.848;37.368;2022-07-23T07:52:12;6.90;;;6.20;;
44147;SDS011;29810;55.848;37.368;2022-07-23T07:55:14;6.85;;;6.25;;
44147;SDS011;29810;55.848;37.368;2022-07-23T07:58:15;6.95;;;6.35;;
44147;SDS011;29810;55.848;37.368;2022-07-23T08:01:17;6.85;;;6.18;;
44147;SDS011;29810;55.848;37.368;2022-07-23T08:04:21;7.90;;;6.60;;
44147;SDS011;29810;55.848;37.368;2022-07-23T08:07:22;9.95;;;7.30;;
44147;SDS011;29810;55.848;37.368;2022-07-23T08:10:24;7.37;;;6.68;;
44147;SDS011;29810;55.848;37.368;2022-07-23T08:13:27;8.30;;;7.40;;
44147;SDS011;29810;55.848;37.368;2022-07-23T08:16:29;7.60;;;6.90;;
44147;SDS011;29810;55.848;37.368;2022-07-23T08:19:30;8.43;;;7.10;;
44147;SDS011;29810;55.848;37.368;2022-07-23T08:22:42;8.05;;;7.30;;
44147;SDS011;29810;55.848;37.368;2022-07-23T08:25:54;7.40;;;6.72;;
44147;SDS011;29810;55.848;37.368;2022-07-23T08:28:57;8.25;;;7.00;;
44147;SDS011;29810;55.848;37.368;2022-07-23T08:31:59;7.72;;;7.00;;
44147;SDS011;29810;55.848;37.368;2022-07-23T08:35:01;7.62;;;6.80;;
44147;SDS011;29810;55.848;37.368;2022-07-23T08:38:04;7.20;;;6.50;;
44147;SDS011;29810;55.848;37.368;2022-07-23T08:41:08;7.32;;;6.72;;
44147;SDS011;29810;55.848;37.368;2022-07-23T08:44:10;7.20;;;6.60;;
44147;SDS011;29810;55.848;37.368;2022-07-23T08:47:13;9.63;;;6.80;;
44147;SDS011;29810;55.848;37.368;2022-07-23T08:50:16;7.47;;;6.68;;
44147;SDS011;29810;55.848;37.368;2022-07-23T08:53:18;8.13;;;7.12;;
44147;SDS011;29810;55.848;37.368;2022-07-23T08:56:21;7.57;;;6.82;;
44147;SDS011;29810;55.848;37.368;2022-07-23T08:59:23;10.25;;;7.20;;
44147;SDS011;29810;55.848;37.368;2022-07-23T09:02:24;7.72;;;6.57;;
44147;SDS011;29810;55.848;37.368;2022-07-23T09:05:27;7.95;;;6.82;;
44147;SDS011;29810;55.848;37.368;2022-07-23T09:08:35;7.60;;;6.90;;
44147;SDS011;29810;55.848;37.368;2022-07-23T09:11:37;8.10;;;7.30;;
44147;SDS011;29810;55.848;37.368;2022-07-23T09:14:40;7.97;;;7.28;;
44147;SDS011;29810;55.848;37.368;2022-07-23T09:17:43;7.57;;;6.90;;
44147;SDS011;29810;55.848;37.368;2022-07-23T09:20:44;8.27;;;7.47;;
44147;SDS011;29810;55.848;37.368;2022-07-23T09:23:57;8.45;;;7.65;;
44147;SDS011;29810;55.848;37.368;2022-07-23T09:27:01;7.70;;;6.90;;
44147;SDS011;29810;55.848;37.368;2022-07-23T09:30:04;8.57;;;7.55;;
44147;SDS011;29810;55.848;37.368;2022-07-23T09:33:10;7.57;;;6.87;;
44147;SDS011;29810;55.848;37.368;2022-07-23T09:36:13;7.75;;;6.95;;
44147;SDS011;29810;55.848;37.368;2022-07-23T09:39:15;8.00;;;7.20;;
44147;SDS011;29810;55.848;37.368;2022-07-23T09:42:23;7.30;;;6.60;;
44147;SDS011;29810;55.848;37.368;2022-07-23T09:45:26;7.37;;;6.68;;
44147;SDS011;29810;55.848;37.368;2022-07-23T09:48:28;7.78;;;7.00;;
44147;SDS011;29810;55.848;37.368;2022-07-23T09:51:29;7.50;;;6.78;;
44147;SDS011;29810;55.848;37.368;2022-07-23T09:54:38;7.90;;;7.20;;
44147;SDS011;29810;55.848;37.368;2022-07-23T09:57:41;7.78;;;7.03;;
44147;SDS011;29810;55.848;37.368;2022-07-23T10:00:47;7.57;;;6.53;;
44147;SDS011;29810;55.848;37.368;2022-07-23T10:03:50;7.65;;;6.95;;
44147;SDS011;29810;55.848;37.368;2022-07-23T10:06:53;7.55;;;6.85;;
44147;SDS011;29810;55.848;37.368;2022-07-23T10:10:01;7.90;;;7.20;;
44147;SDS011;29810;55.848;37.368;2022-07-23T10:13:09;8.68;;;7.60;;
44147;SDS011;29810;55.848;37.368;2022-07-23T10:16:27;8.13;;;7.37;;
44147;SDS011;29810;55.848;37.368;2022-07-23T10:19:28;8.52;;;7.55;;
44147;SDS011;29810;55.848;37.368;2022-07-23T10:22:33;7.70;;;6.90;;
44147;SDS011;29810;55.848;37.368;2022-07-23T10:36:20;8.20;;;7.40;;
44147;SDS011;29810;55.848;37.368;2022-07-23T10:39:26;8.38;;;7.53;;
44147;SDS011;29810;55.848;37.368;2022-07-23T10:42:33;9.30;;;7.80;;
44147;SDS011;29810;55.848;37.368;2022-07-23T10:45:36;8.52;;;7.68;;
44147;SDS011;29810;55.848;37.368;2022-07-23T10:48:38;8.75;;;7.37;;
44147;SDS011;29810;55.848;37.368;2022-07-23T10:51:39;8.10;;;7.40;;
44147;SDS011;29810;55.848;37.368;2022-07-23T10:58:49;7.72;;;7.03;;
44147;SDS011;29810;55.848;37.368;2022-07-23T11:01:51;10.65;;;7.37;;
44147;SDS011;29810;55.848;37.368;2022-07-23T11:04:53;8.57;;;7.10;;
44147;SDS011;29810;55.848;37.368;2022-07-23T11:14:07;8.32;;;7.47;;
44147;SDS011;29810;55.848;37.368;2022-07-23T11:17:18;8.30;;;7.50;;
44147;SDS011;29810;55.848;37.368;2022-07-23T11:20:22;8.70;;;7.87;;
44147;SDS011;29810;55.848;37.368;2022-07-23T11:23:26;9.05;;;7.75;;
44147;SDS011;29810;55.848;37.368;2022-07-23T11:26:59;8.30;;;7.50;;
44147;SDS011;29810;55.848;37.368;2022-07-23T11:30:02;9.02;;;8.13;;
44147;SDS011;29810;55.848;37.368;2022-07-23T11:36:08;8.10;;;7.30;;
44147;SDS011;29810;55.848;37.368;2022-07-23T11:39:10;8.38;;;7.57;;
44147;SDS011;29810;55.848;37.368;2022-07-23T11:42:11;7.78;;;7.03;;
44147;SDS011;29810;55.848;37.368;2022-07-23T11:45:20;8.02;;;7.32;;
44147;SDS011;29810;55.848;37.368;2022-07-23T11:48:26;8.32;;;7.53;;
44147;SDS011;29810;55.848;37.368;2022-07-23T11:51:29;8.05;;;7.35;;
44147;SDS011;29810;55.848;37.368;2022-07-23T11:54:33;7.60;;;7.00;;
44147;SDS011;29810;55.848;37.368;2022-07-23T11:57:37;8.23;;;7.43;;
44147;SDS011;29810;55.848;37.368;2022-07-23T12:00:40;7.80;;;7.10;;
44147;SDS011;29810;55.848;37.368;2022-07-23T12:03:49;8.05;;;7.25;;
44147;SDS011;29810;55.848;37.368;2022-07-23T12:06:52;7.90;;;7.05;;
44147;SDS011;29810;55.848;37.368;2022-07-23T12:09:54;11.38;;;7.85;;
44147;SDS011;29810;55.848;37.368;2022-07-23T12:12:58;8.07;;;7.37;;
44147;SDS011;29810;55.848;37.368;2022-07-23T12:16:02;8.68;;;7.43;;
44147;SDS011;29810;55.848;37.368;2022-07-23T12:19:05;7.43;;;6.70;;
44147;SDS011;29810;55.848;37.368;2022-07-23T12:22:07;8.20;;;7.40;;
44147;SDS011;29810;55.848;37.368;2022-07-23T12:25:12;7.68;;;6.87;;
44147;SDS011;29810;55.848;37.368;2022-07-23T12:28:17;7.75;;;6.72;;
44147;SDS011;29810;55.848;37.368;2022-07-23T12:31:25;7.68;;;6.97;;
44147;SDS011;29810;55.848;37.368;2022-07-23T12:34:27;8.18;;;7.35;;
44147;SDS011;29810;55.848;37.368;2022-07-23T12:37:30;8.45;;;7.07;;
44147;SDS011;29810;55.848;37.368;2022-07-23T12:40:42;7.95;;;7.25;;
44147;SDS011;29810;55.848;37.368;2022-07-23T12:43:49;7.60;;;6.90;;
44147;SDS011;29810;55.848;37.368;2022-07-23T12:46:51;8.10;;;7.20;;
44147;SDS011;29810;55.848;37.368;2022-07-23T12:49:53;8.18;;;7.47;;
44147;SDS011;29810;55.848;37.368;2022-07-23T12:53:01;8.57;;;7.78;;
44147;SDS011;29810;55.848;37.368;2022-07-23T12:56:06;7.90;;;7.10;;
44147;SDS011;29810;55.848;37.368;2022-07-23T12:59:15;7.78;;;7.03;;
44147;SDS011;29810;55.848;37.368;2022-07-23T13:02:17;9.25;;;6.68;;
44147;SDS011;29810;55.848;37.368;2022-07-23T13:05:19;7.62;;;6.93;;
44147;SDS011;29810;55.848;37.368;2022-07-23T13:08:20;7.82;;;7.05;;
44147;SDS011;29810;55.848;37.368;2022-07-23T13:11:23;8.20;;;7.40;;
44147;SDS011;29810;55.848;37.368;2022-07-23T13:14:25;7.97;;;7.07;;
44147;SDS011;29810;55.848;37.368;2022-07-23T13:17:27;7.62;;;6.87;;
44147;SDS011;29810;55.848;37.368;2022-07-23T13:20:28;8.20;;;7.18;;
44147;SDS011;29810;55.848;37.368;2022-07-23T13:23:32;8.20;;;7.40;;
44147;SDS011;29810;55.848;37.368;2022-07-23T13:26:33;7.97;;;6.97;;
44147;SDS011;29810;55.848;37.368;2022-07-23T13:29:35;8.38;;;7.32;;
44147;SDS011;29810;55.848;37.368;2022-07-23T13:32:37;8.68;;;7.78;;
44147;SDS011;29810;55.848;37.368;2022-07-23T13:35:38;8.95;;;7.70;;
44147;SDS011;29810;55.848;37.368;2022-07-23T13:38:40;7.62;;;6.93;;
44147;SDS011;29810;55.848;37.368;2022-07-23T13:41:42;8.27;;;7.47;;
44147;SDS011;29810;55.848;37.368;2022-07-23T13:44:43;8.80;;;7.62;;
44147;SDS011;29810;55.848;37.368;2022-07-23T13:47:45;8.30;;;7.50;;
44147;SDS011;29810;55.848;37.368;2022-07-23T13:50:47;7.65;;;6.95;;
44147;SDS011;29810;55.848;37.368;2022-07-23T13:53:50;7.95;;;7.15;;
44147;SDS011;29810;55.848;37.368;2022-07-23T13:56:51;7.62;;;7.00;;
44147;SDS011;29810;55.848;37.368;2022-07-23T13:59:53;8.02;;;7.20;;
44147;SDS011;29810;55.848;37.368;2022-07-23T14:02:54;7.78;;;7.05;;
44147;SDS011;29810;55.848;37.368;2022-07-23T14:05:56;7.55;;;6.68;;
44147;SDS011;29810;55.848;37.368;2022-07-23T14:08:58;8.35;;;7.37;;
44147;SDS011;29810;55.848;37.368;2022-07-23T14:11:59;7.65;;;6.93;;
44147;SDS011;29810;55.848;37.368;2022-07-23T14:15:01;7.85;;;6.95;;
44147;SDS011;29810;55.848;37.368;2022-07-23T14:18:05;7.97;;;7.18;;
44147;SDS011;29810;55.848;37.368;2022-07-23T14:21:06;9.25;;;7.43;;
44147;SDS011;29810;55.848;37.368;2022-07-23T14:24:08;7.47;;;6.68;;
44147;SDS011;29810;55.848;37.368;2022-07-23T14:27:09;7.70;;;7.00;;
44147;SDS011;29810;55.848;37.368;2022-07-23T14:30:12;8.40;;;7.65;;
44147;SDS011;29810;55.848;37.368;2022-07-23T14:33:15;7.57;;;6.60;;
44147;SDS011;29810;55.848;37.368;2022-07-23T14:36:17;7.60;;;6.90;;
44147;SDS011;29810;55.848;37.368;2022-07-23T14:39:19;7.62;;;6.93;;
44147;SDS011;29810;55.848;37.368;2022-07-23T14:42:21;8.43;;;7.10;;
44147;SDS011;29810;55.848;37.368;2022-07-23T14:45:22;8.75;;;7.25;;
44147;SDS011;29810;55.848;37.368;2022-07-23T14:48:24;7.53;;;6.93;;
44147;SDS011;29810;55.848;37.368;2022-07-23T14:51:25;8.05;;;7.07;;
44147;SDS011;29810;55.848;37.368;2022-07-23T14:54:27;7.72;;;6.93;;
44147;SDS011;29810;55.848;37.368;2022-07-23T14:57:29;7.43;;;6.72;;
44147;SDS011;29810;55.848;37.368;2022-07-23T15:00:31;8.05;;;7.32;;
44147;SDS011;29810;55.848;37.368;2022-07-23T15:03:32;8.40;;;7.15;;
44147;SDS011;29810;55.848;37.368;2022-07-23T15:06:35;7.53;;;6.82;;
44147;SDS011;29810;55.848;37.368;2022-07-23T15:09:36;8.00;;;7.20;;
44147;SDS011;29810;55.848;37.368;2022-07-23T15:12:38;9.40;;;7.45;;
44147;SDS011;29810;55.848;37.368;2022-07-23T15:15:39;7.90;;;7.12;;
44147;SDS011;29810;55.848;37.368;2022-07-23T15:18:41;8.20;;;7.40;;
44147;SDS011;29810;55.848;37.368;2022-07-23T15:21:43;8.05;;;7.25;;
44147;SDS011;29810;55.848;37.368;2022-07-23T15:24:44;8.23;;;7.43;;
44147;SDS011;29810;55.848;37.368;2022-07-23T15:27:46;8.02;;;7.22;;
44147;SDS011;29810;55.848;37.368;2022-07-23T15:30:48;8.40;;;7.25;;
44147;SDS011;29810;55.848;37.368;2022-07-23T15:33:52;7.82;;;7.03;;
44147;SDS011;29810;55.848;37.368;2022-07-23T15:36:53;7.90;;;7.20;;
44147;SDS011;29810;55.848;37.368;2022-07-23T15:39:55;9.45;;;6.37;;
44147;SDS011;29810;55.848;37.368;2022-07-23T15:42:56;7.25;;;6.55;;
44147;SDS011;29810;55.848;37.368;2022-07-23T15:45:58;6.97;;;6.35;;
44147;SDS011;29810;55.848;37.368;2022-07-23T15:49:00;9.18;;;6.97;;
44147;SDS011;29810;55.848;37.368;2022-07-23T15:52:02;7.37;;;6.68;;
44147;SDS011;29810;55.848;37.368;2022-07-23T15:55:04;7.00;;;6.35;;
44147;SDS011;29810;55.848;37.368;2022-07-23T15:58:06;10.73;;;6.93;;
44147;SDS011;29810;55.848;37.368;2022-07-23T16:01:08;8.38;;;7.55;;
44147;SDS011;29810;55.848;37.368;2022-07-23T16:04:09;7.65;;;6.85;;
44147;SDS011;29810;55.848;37.368;2022-07-23T16:07:12;7.72;;;6.47;;
44147;SDS011;29810;55.848;37.368;2022-07-23T16:10:14;7.43;;;6.72;;
44147;SDS011;29810;55.848;37.368;2022-07-23T16:13:15;7.15;;;6.32;;
44147;SDS011;29810;55.848;37.368;2022-07-23T16:16:17;7.30;;;6.60;;
44147;SDS011;29810;55.848;37.368;2022-07-23T16:19:18;9.00;;;6.95;;
44147;SDS011;29810;55.848;37.368;2022-07-23T16:22:20;7.80;;;6.68;;
44147;SDS011;29810;55.848;37.368;2022-07-23T16:25:21;7.25;;;6.40;;
44147;SDS011;29810;55.848;37.368;2022-07-23T16:28:23;8.00;;;6.40;;
44147;SDS011;29810;55.848;37.368;2022-07-23T16:31:25;7.37;;;6.50;;
44147;SDS011;29810;55.848;37.368;2022-07-23T16:34:27;7.55;;;6.75;;
44147;SDS011;29810;55.848;37.368;2022-07-23T16:37:28;8.27;;;6.90;;
44147;SDS011;29810;55.848;37.368;2022-07-23T16:40:31;7.75;;;6.95;;
44147;SDS011;29810;55.848;37.368;2022-07-23T16:43:33;7.78;;;7.03;;
44147;SDS011;29810;55.848;37.368;2022-07-23T16:46:35;7.28;;;6.00;;
44147;SDS011;29810;55.848;37.368;2022-07-23T16:49:37;7.53;;;6.62;;
44147;SDS011;29810;55.848;37.368;2022-07-23T16:52:38;12.18;;;6.80;;
44147;SDS011;29810;55.848;37.368;2022-07-23T16:55:40;8.25;;;6.65;;
44147;SDS011;29810;55.848;37.368;2022-07-23T16:58:42;7.28;;;6.35;;
44147;SDS011;29810;55.848;37.368;2022-07-23T17:01:43;8.30;;;6.20;;
44147;SDS011;29810;55.848;37.368;2022-07-23T17:04:45;7.50;;;6.28;;
44147;SDS011;29810;55.848;37.368;2022-07-23T17:07:46;7.65;;;6.35;;
44147;SDS011;29810;55.848;37.368;2022-07-23T17:10:48;7.80;;;6.80;;
44147;SDS011;29810;55.848;37.368;2022-07-23T17:13:50;7.93;;;6.40;;
44147;SDS011;29810;55.848;37.368;2022-07-23T17:16:52;10.38;;;7.20;;
44147;SDS011;29810;55.848;37.368;2022-07-23T17:19:53;9.13;;;6.57;;
44147;SDS011;29810;55.848;37.368;2022-07-23T17:22:55;8.20;;;6.50;;
44147;SDS011;29810;55.848;37.368;2022-07-23T17:25:56;7.95;;;6.87;;
44147;SDS011;29810;55.848;37.368;2022-07-23T17:28:59;6.28;;;5.65;;
44147;SDS011;29810;55.848;37.368;2022-07-23T17:32:00;9.68;;;6.80;;
44147;SDS011;29810;55.848;37.368;2022-07-23T17:35:02;10.45;;;7.97;;
44147;SDS011;29810;55.848;37.368;2022-07-23T17:38:04;7.80;;;7.00;;
44147;SDS011;29810;55.848;37.368;2022-07-23T17:41:06;9.50;;;7.22;;
44147;SDS011;29810;55.848;37.368;2022-07-23T17:44:07;11.75;;;7.95;;
44147;SDS011;29810;55.848;37.368;2022-07-23T17:47:11;10.43;;;6.05;;
44147;SDS011;29810;55.848;37.368;2022-07-23T17:50:13;8.93;;;6.68;;
44147;SDS011;29810;55.848;37.368;2022-07-23T17:53:15;10.43;;;6.85;;
44147;SDS011;29810;55.848;37.368;2022-07-23T17:56:16;7.80;;;6.78;;
44147;SDS011;29810;55.848;37.368;2022-07-23T17:59:18;10.35;;;7.72;;
44147;SDS011;29810;55.848;37.368;2022-07-23T18:02:20;9.35;;;7.37;;
44147;SDS011;29810;55.848;37.368;2022-07-23T18:05:23;7.80;;;6.60;;
44147;SDS011;29810;55.848;37.368;2022-07-23T18:08:25;7.93;;;6.30;;
44147;SDS011;29810;55.848;37.368;2022-07-23T18:11:26;9.35;;;7.32;;
44147;SDS011;29810;55.848;37.368;2022-07-23T18:14:28;7.50;;;6.60;;
44147;SDS011;29810;55.848;37.368;2022-07-23T18:17:30;10.80;;;6.90;;
44147;SDS011;29810;55.848;37.368;2022-07-23T18:20:32;7.12;;;6.43;;
44147;SDS011;29810;55.848;37.368;2022-07-23T18:23:33;8.18;;;7.07;;
44147;SDS011;29810;55.848;37.368;2022-07-23T18:26:35;11.70;;;7.18;;